createdAt,value
2019-02-17T05:00:39.191Z,999.50
2019-02-17T05:01:31.055Z,999.48
2019-02-17T05:02:30.222Z,999.58
2019-02-17T05:03:30.453Z,999.52
2019-02-17T05:04:30.643Z,999.54
2019-02-17T05:05:30.804Z,999.51
2019-02-17T05:06:30.984Z,999.49
2019-02-17T05:07:31.152Z,999.48
2019-02-17T05:08:31.333Z,999.47
2019-02-17T05:09:31.505Z,999.43
2019-02-17T05:10:32.808Z,999.45
2019-02-17T05:11:31.815Z,999.39
2019-02-17T05:12:31.975Z,999.37
2019-02-17T05:13:32.146Z,999.33
2019-02-17T05:14:32.318Z,999.36
2019-02-17T05:15:32.470Z,999.30
2019-02-17T05:16:32.645Z,999.39
2019-02-17T05:17:32.787Z,999.34
2019-02-17T05:18:32.950Z,999.31
2019-02-17T05:19:33.145Z,999.29
2019-02-17T05:20:33.311Z,999.34
2019-02-17T05:21:33.484Z,999.30
2019-02-17T05:22:33.693Z,999.29
2019-02-17T05:23:33.857Z,999.32
2019-02-17T05:24:34.043Z,999.30
2019-02-17T05:25:34.234Z,999.32
2019-02-17T05:26:34.396Z,999.32
2019-02-17T05:27:34.610Z,999.30
2019-02-17T05:28:34.809Z,999.34
2019-02-17T05:29:35.038Z,999.26
2019-02-17T05:30:35.234Z,999.26
2019-02-17T05:31:35.424Z,999.34
2019-02-17T05:32:35.600Z,999.32
2019-02-17T05:33:35.785Z,999.29
2019-02-17T05:34:36.003Z,999.28
2019-02-17T05:35:36.179Z,999.32
2019-02-17T05:36:36.384Z,999.34
2019-02-17T05:37:36.608Z,999.30
2019-02-17T05:38:36.823Z,999.27
2019-02-17T05:39:37.019Z,999.25
2019-02-17T05:40:38.220Z,999.27
2019-02-17T05:41:37.375Z,999.26
2019-02-17T05:42:37.547Z,999.32
2019-02-17T05:43:37.768Z,999.23
2019-02-17T05:44:37.978Z,999.27
2019-02-17T05:45:38.180Z,999.29
2019-02-17T05:46:38.390Z,999.32
2019-02-17T05:47:38.571Z,999.27
2019-02-17T05:48:38.744Z,999.27
2019-02-17T05:49:38.969Z,999.30
2019-02-17T05:50:39.124Z,999.28
2019-02-17T05:51:39.304Z,999.25
2019-02-17T05:52:39.471Z,999.27
2019-02-17T05:53:39.653Z,999.27
2019-02-17T05:54:39.849Z,999.33
2019-02-17T05:55:40.030Z,999.30
2019-02-17T05:56:40.201Z,999.31
2019-02-17T05:57:40.364Z,999.28
2019-02-17T05:58:40.543Z,999.30
2019-02-17T05:59:40.756Z,999.33
2019-02-17T06:00:40.926Z,999.26
2019-02-17T06:01:41.079Z,999.34
2019-02-17T06:02:41.284Z,999.32
2019-02-17T06:03:41.453Z,999.27
2019-02-17T06:04:41.626Z,999.30
2019-02-17T06:05:41.827Z,999.36
2019-02-17T06:06:41.982Z,999.29
2019-02-17T06:07:42.160Z,999.30
2019-02-17T06:08:42.349Z,999.28
2019-02-17T06:09:42.533Z,999.31
2019-02-17T06:10:42.725Z,999.34
2019-02-17T06:11:42.895Z,999.36
2019-02-17T06:12:43.057Z,999.33
2019-02-17T06:13:43.215Z,999.30
2019-02-17T06:14:43.451Z,999.30
2019-02-17T06:15:43.614Z,999.30
2019-02-17T06:16:43.773Z,999.36
2019-02-17T06:17:43.955Z,999.35
2019-02-17T06:18:44.115Z,999.28
2019-02-17T06:19:44.278Z,999.32
2019-02-17T06:20:44.550Z,999.33
2019-02-17T06:21:44.597Z,999.38
2019-02-17T06:22:44.772Z,999.32
2019-02-17T06:23:44.941Z,999.40
2019-02-17T06:24:45.105Z,999.36
2019-02-17T06:25:45.285Z,999.33
2019-02-17T06:26:45.460Z,999.37
2019-02-17T06:27:45.635Z,999.34
2019-02-17T06:28:45.941Z,999.37
2019-02-17T06:29:45.994Z,999.36
2019-02-17T06:30:46.171Z,999.38
2019-02-17T06:31:46.346Z,999.41
2019-02-17T06:32:46.532Z,999.44
2019-02-17T06:33:46.741Z,999.50
2019-02-17T06:34:46.958Z,999.49
2019-02-17T06:35:47.152Z,999.44
2019-02-17T06:36:48.290Z,999.51
2019-02-17T06:37:47.592Z,999.48
2019-02-17T06:38:47.732Z,999.48
2019-02-17T06:39:47.896Z,999.53
2019-02-17T06:40:48.008Z,999.52
2019-02-17T06:41:48.119Z,999.53
2019-02-17T06:42:48.324Z,999.49
2019-02-17T06:43:48.566Z,999.53
2019-02-17T06:44:48.751Z,999.51
2019-02-17T06:45:49.023Z,999.48
2019-02-17T06:46:49.222Z,999.50
2019-02-17T06:47:49.280Z,999.58
2019-02-17T06:48:49.489Z,999.60
2019-02-17T06:49:49.699Z,999.66
2019-02-17T06:50:49.911Z,999.63
2019-02-17T06:51:50.083Z,999.58
2019-02-17T06:52:50.261Z,999.50
2019-02-17T06:53:50.439Z,999.56
2019-02-17T06:54:50.626Z,999.62
2019-02-17T06:55:50.842Z,999.62
2019-02-17T06:56:51.022Z,999.61
2019-02-17T06:57:51.229Z,999.60
2019-02-17T06:58:51.401Z,999.55
2019-02-17T06:59:52.650Z,999.59
2019-02-17T07:00:51.777Z,999.61
2019-02-17T07:01:55.849Z,999.58
2019-02-17T07:02:55.568Z,999.60
2019-02-17T07:03:53.315Z,999.56
2019-02-17T07:05:01.920Z,999.64
2019-02-17T07:05:53.707Z,999.60
2019-02-17T07:06:52.911Z,999.62
2019-02-17T07:07:53.144Z,999.65
2019-02-17T07:08:53.320Z,999.59
2019-02-17T07:09:53.599Z,999.66
2019-02-17T07:10:53.700Z,999.63
2019-02-17T07:11:56.894Z,999.67
2019-02-17T07:12:54.059Z,999.64
2019-02-17T07:13:54.278Z,999.65
2019-02-17T07:14:54.532Z,999.63
2019-02-17T07:15:54.713Z,999.65
2019-02-17T07:16:54.853Z,999.59
2019-02-17T07:17:54.978Z,999.56
2019-02-17T07:18:55.178Z,999.61
2019-02-17T07:19:55.940Z,999.66
2019-02-17T07:21:30.368Z,999.65
2019-02-17T07:21:55.789Z,999.65
2019-02-17T07:22:56.013Z,999.73
2019-02-17T07:23:56.218Z,999.74
2019-02-17T07:24:56.408Z,999.69
2019-02-17T07:25:56.607Z,999.66
2019-02-17T07:26:56.928Z,999.68
2019-02-17T07:27:57.020Z,999.67
2019-02-17T07:28:57.326Z,999.66
2019-02-17T07:29:57.464Z,999.71
2019-02-17T07:30:57.555Z,999.73
2019-02-17T07:31:57.805Z,999.72
2019-02-17T07:32:57.945Z,999.69
2019-02-17T07:33:58.258Z,999.72
2019-02-17T07:34:59.790Z,999.74
2019-02-17T07:35:58.613Z,999.68
2019-02-17T07:36:58.607Z,999.70
2019-02-17T07:37:58.732Z,999.70
2019-02-17T07:38:58.869Z,999.70
2019-02-17T07:39:59.120Z,999.66
2019-02-17T07:40:59.234Z,999.62
2019-02-17T07:41:59.511Z,999.61
2019-02-17T07:42:59.788Z,999.67
2019-02-17T07:43:59.810Z,999.70
2019-02-17T07:45:00.077Z,999.63
2019-02-17T07:46:00.112Z,999.67
2019-02-17T07:47:00.270Z,999.68
2019-02-17T07:48:00.439Z,999.67
2019-02-17T07:49:00.597Z,999.65
2019-02-17T07:50:00.786Z,999.63
2019-02-17T07:51:00.876Z,999.57
2019-02-17T07:52:01.468Z,999.65
2019-02-17T07:53:01.265Z,999.66
2019-02-17T07:54:01.902Z,999.64
2019-02-17T07:55:01.639Z,999.70
2019-02-17T07:56:01.921Z,999.68
2019-02-17T07:57:01.989Z,999.67
2019-02-17T07:58:02.184Z,999.67
2019-02-17T07:59:03.057Z,999.60
2019-02-17T08:00:02.639Z,999.63
2019-02-17T08:01:03.237Z,999.57
2019-02-17T08:02:02.897Z,999.62
2019-02-17T08:03:03.122Z,999.60
2019-02-17T08:04:03.315Z,999.61
2019-02-17T08:05:03.548Z,999.65
2019-02-17T08:06:03.755Z,999.61
2019-02-17T08:07:03.999Z,999.67
2019-02-17T08:08:04.203Z,999.64
2019-02-17T08:09:04.408Z,999.71
2019-02-17T08:10:04.654Z,999.68
2019-02-17T08:11:05.577Z,999.67
2019-02-17T08:12:05.040Z,999.66
2019-02-17T08:13:05.251Z,999.65
2019-02-17T08:14:05.434Z,999.59
2019-02-17T08:15:07.242Z,999.60
2019-02-17T08:16:05.876Z,999.59
2019-02-17T08:17:05.933Z,999.56
2019-02-17T08:18:06.152Z,999.52
2019-02-17T08:19:06.343Z,999.51
2019-02-17T08:20:06.543Z,999.55
2019-02-17T08:21:06.752Z,999.61
2019-02-17T08:22:06.957Z,999.54
2019-02-17T08:23:07.139Z,999.49
2019-02-17T08:24:07.316Z,999.49
2019-02-17T08:25:07.478Z,999.47
2019-02-17T08:26:07.670Z,999.48
2019-02-17T08:27:07.864Z,999.48
2019-02-17T08:28:08.049Z,999.47
2019-02-17T08:29:08.286Z,999.50
2019-02-17T08:30:08.482Z,999.51
2019-02-17T08:31:08.704Z,999.44
2019-02-17T08:32:08.884Z,999.45
2019-02-17T08:33:09.095Z,999.49
2019-02-17T08:34:09.274Z,999.44
2019-02-17T08:35:09.454Z,999.47
2019-02-17T08:36:09.635Z,999.44
2019-02-17T08:37:11.167Z,999.46
2019-02-17T08:38:09.953Z,999.43
2019-02-17T08:39:10.143Z,999.47
2019-02-17T08:40:10.347Z,999.46
2019-02-17T08:41:10.585Z,999.40
2019-02-17T08:42:10.803Z,999.48
2019-02-17T08:43:10.986Z,999.39
2019-02-17T08:44:11.238Z,999.41
2019-02-17T08:45:11.344Z,999.40
2019-02-17T08:46:11.551Z,999.41
2019-02-17T08:47:11.803Z,999.33
2019-02-17T08:48:11.899Z,999.38
2019-02-17T08:49:12.100Z,999.40
2019-02-17T08:50:12.304Z,999.30
2019-02-17T08:51:12.510Z,999.31
2019-02-17T08:52:12.704Z,999.35
2019-02-17T08:53:12.908Z,999.30
2019-02-17T08:54:13.094Z,999.30
2019-02-17T08:55:13.293Z,999.28
2019-02-17T08:56:13.492Z,999.25
2019-02-17T08:57:13.688Z,999.29
2019-02-17T08:58:13.839Z,999.31
2019-02-17T08:59:14.048Z,999.32
2019-02-17T09:15:49.473Z,999.31
2019-02-17T09:16:49.569Z,999.24
2019-02-17T09:17:49.722Z,999.25
2019-02-17T09:18:49.627Z,999.19
2019-02-17T09:19:49.762Z,999.22
2019-02-17T09:20:49.922Z,999.25
2019-02-17T09:21:50.047Z,999.20
2019-02-17T09:22:50.200Z,999.12
2019-02-17T09:23:50.340Z,999.20
2019-02-17T09:24:50.537Z,999.16
2019-02-17T09:25:50.723Z,999.15
2019-02-17T09:26:50.881Z,999.14
2019-02-17T09:27:51.008Z,999.17
2019-02-17T10:10:21.216Z,998.92
2019-02-17T10:11:21.303Z,998.95
2019-02-17T10:12:21.459Z,998.94
2019-02-17T10:13:21.579Z,998.90
2019-02-17T10:14:21.769Z,998.89
2019-02-17T10:15:21.926Z,998.84
2019-02-17T10:16:22.896Z,998.85
2019-02-17T10:17:22.364Z,998.84
2019-02-17T10:18:22.568Z,998.84
2019-02-17T10:19:22.762Z,998.81
2019-02-17T10:20:24.494Z,998.75
2019-02-17T10:21:23.109Z,998.75
2019-02-17T10:22:23.830Z,998.79
2019-02-17T10:23:24.249Z,998.80
2019-02-17T10:24:24.271Z,998.82
2019-02-17T10:25:24.146Z,998.78
2019-02-17T10:26:24.127Z,998.78
2019-02-17T10:27:24.527Z,998.73
2019-02-17T10:28:25.108Z,998.80
2019-02-17T10:29:24.838Z,998.76
2019-02-17T10:30:24.987Z,998.75
2019-02-17T10:31:25.173Z,998.73
2019-02-17T10:32:25.286Z,998.74
2019-02-17T10:33:25.968Z,998.68
2019-02-17T10:34:25.962Z,998.71
2019-02-17T10:35:26.085Z,998.58
2019-02-17T10:36:26.251Z,998.64
2019-02-17T10:37:26.259Z,998.69
2019-02-17T10:38:27.610Z,998.63
2019-02-17T10:39:26.709Z,998.55
2019-02-17T10:40:27.129Z,998.61
2019-02-17T10:41:26.956Z,998.58
2019-02-17T10:42:27.328Z,998.64
2019-02-17T10:43:27.292Z,998.59
2019-02-17T10:44:27.426Z,998.56
2019-02-17T10:45:28.207Z,998.59
2019-02-17T10:46:27.952Z,998.56
2019-02-17T10:47:28.233Z,998.57
2019-02-17T10:48:28.726Z,998.60
2019-02-17T10:49:28.542Z,998.54
2019-02-17T10:50:28.827Z,998.55
2019-02-17T10:51:28.968Z,998.48
2019-02-17T10:52:29.432Z,998.47
2019-02-17T10:53:29.835Z,998.44
2019-02-17T10:54:29.814Z,998.52
2019-02-17T10:55:29.817Z,998.51
2019-02-17T10:56:29.922Z,998.43
2019-02-17T10:57:30.163Z,998.51
2019-02-17T10:58:30.473Z,998.47
2019-02-17T10:59:31.843Z,998.45
2019-02-17T11:30:32.281Z,997.94
2019-02-17T11:31:32.674Z,997.93
2019-02-17T11:32:32.610Z,997.86
2019-02-17T11:33:32.827Z,997.91
2019-02-17T11:34:33.044Z,997.90
2019-02-17T11:35:33.231Z,997.88
2019-02-17T11:36:33.447Z,997.83
2019-02-17T11:37:33.668Z,997.85
2019-02-17T11:38:33.849Z,997.84
2019-02-17T11:39:34.041Z,997.86
2019-02-17T11:40:34.277Z,997.83
2019-02-17T11:41:34.494Z,997.78
2019-02-17T11:42:34.680Z,997.78
2019-02-17T11:43:34.914Z,997.73
2019-02-17T11:44:35.107Z,997.70
2019-02-17T11:45:35.319Z,997.76
2019-02-17T11:46:35.507Z,997.63
2019-02-17T11:47:35.699Z,997.61
2019-02-17T11:48:35.899Z,997.62
2019-02-17T11:49:36.129Z,997.63
2019-02-17T11:50:36.387Z,997.60
2019-02-17T11:51:36.515Z,997.63
2019-02-17T11:52:37.721Z,997.61
2019-02-17T11:53:37.888Z,997.58
2019-02-17T11:54:38.171Z,997.55
2019-02-17T11:55:38.236Z,997.51
2019-02-17T11:56:38.381Z,997.53
2019-02-17T11:57:38.567Z,997.51
2019-02-17T11:58:38.735Z,997.54
2019-02-17T11:59:38.855Z,997.51
2019-02-17T12:00:39.001Z,997.52
2019-02-17T12:01:39.193Z,997.49
2019-02-17T12:02:39.399Z,997.50
2019-02-17T12:03:39.569Z,997.44
2019-02-17T12:04:39.852Z,997.39
2019-02-17T12:05:40.184Z,997.42
2019-02-17T12:06:40.096Z,997.39
2019-02-17T12:07:40.277Z,997.40
2019-02-17T12:08:40.540Z,997.41
2019-02-17T12:09:40.699Z,997.41
2019-02-17T12:10:40.785Z,997.39
2019-02-17T12:11:40.966Z,997.41
2019-02-17T12:12:41.174Z,997.32
2019-02-17T12:13:41.313Z,997.30
2019-02-17T12:14:41.547Z,997.25
2019-02-17T12:15:41.697Z,997.31
2019-02-17T12:16:41.862Z,997.30
2019-02-17T12:17:42.017Z,997.26
2019-02-17T12:18:42.216Z,997.23
2019-02-17T12:19:42.372Z,997.22
2019-02-17T12:20:42.485Z,997.23
2019-02-17T12:21:42.645Z,997.20
2019-02-17T12:22:42.793Z,997.19
2019-02-17T12:23:42.925Z,997.22
2019-02-17T12:24:43.061Z,997.27
2019-02-17T12:25:43.214Z,997.15
2019-02-17T12:26:43.365Z,997.15
2019-02-17T12:27:43.542Z,997.11
2019-02-17T12:28:43.690Z,997.17
2019-02-17T12:29:45.116Z,997.13
2019-02-17T12:30:44.188Z,997.08
2019-02-17T12:31:44.393Z,997.06
2019-02-17T12:32:44.529Z,997.05
2019-02-17T12:33:44.702Z,997.05
2019-02-17T12:34:44.831Z,997.00
2019-02-17T12:35:45.005Z,997.10
2019-02-17T12:36:45.135Z,997.02
2019-02-17T12:37:47.293Z,997.06
2019-02-17T12:38:45.511Z,996.97
2019-02-17T12:39:45.759Z,997.01
2019-02-17T12:40:45.861Z,996.99
2019-02-17T12:41:46.076Z,997.03
2019-02-17T12:42:46.234Z,996.94
2019-02-17T12:43:46.358Z,996.98
2019-02-17T12:44:46.486Z,996.97
2019-02-17T12:45:46.686Z,996.93
2019-02-17T13:06:22.976Z,996.78
2019-02-17T13:07:24.304Z,996.80
2019-02-17T13:08:24.470Z,996.85
2019-02-17T13:09:24.871Z,996.79
2019-02-17T13:10:25.489Z,996.75
2019-02-17T13:11:25.066Z,996.71
2019-02-17T13:12:25.496Z,996.64
2019-02-17T13:13:25.923Z,996.70
2019-02-17T13:14:26.499Z,996.50
2019-02-17T13:15:26.459Z,996.57
2019-02-17T13:16:26.845Z,996.61
2019-02-17T13:17:27.178Z,996.47
2019-02-17T13:18:28.126Z,996.57
2019-02-17T13:19:26.728Z,996.55
2019-02-17T13:20:26.891Z,996.52
2019-02-17T13:21:27.938Z,996.50
2019-02-17T13:22:28.301Z,996.48
2019-02-17T13:23:27.441Z,996.56
2019-02-17T13:24:27.741Z,996.57
2019-02-17T13:25:30.212Z,996.50
2019-02-17T13:26:27.808Z,996.51
2019-02-17T13:27:27.994Z,996.42
2019-02-17T13:28:28.277Z,996.45
2019-02-17T13:29:28.276Z,996.49
2019-02-17T13:30:28.368Z,996.45
2019-02-17T13:31:29.360Z,996.49
2019-02-17T13:32:29.832Z,996.33
2019-02-17T13:33:38.750Z,996.37
2019-02-17T13:34:31.095Z,996.37
2019-02-17T13:35:29.601Z,996.33
2019-02-17T13:36:30.323Z,996.31
2019-02-17T13:37:30.319Z,996.29
2019-02-17T13:38:31.327Z,996.30
2019-02-17T13:39:30.792Z,996.20
2019-02-17T13:40:31.664Z,996.24
2019-02-17T13:41:30.950Z,996.25
2019-02-17T13:42:31.317Z,996.20
2019-02-17T13:43:32.159Z,996.17
2019-02-17T13:44:31.678Z,996.19
2019-02-17T13:45:32.115Z,996.14
2019-02-17T13:46:31.917Z,996.29
2019-02-17T13:47:32.404Z,996.27
2019-02-17T13:48:32.701Z,996.30
2019-02-17T13:49:32.650Z,996.23
2019-02-17T13:50:32.978Z,996.24
2019-02-17T13:51:33.285Z,996.22
2019-02-17T13:52:33.978Z,996.22
2019-02-17T13:53:34.476Z,996.25
2019-02-17T13:54:33.537Z,996.15
2019-02-17T13:55:34.605Z,996.17
2019-02-17T13:56:34.762Z,996.18
2019-02-17T13:57:33.817Z,996.14
2019-02-17T13:58:33.907Z,996.13
2019-02-17T13:59:34.279Z,996.18
2019-02-17T14:00:34.581Z,996.15
2019-02-17T14:01:34.677Z,996.14
2019-02-17T14:02:34.987Z,996.18
2019-02-17T14:03:35.151Z,996.11
